Wilberforce, Canada
Current Conditions -  °F | °C
As of 2:00 PM on Sunday 23 Nov 2014 (Local Time) from CYQA Reporting Station
Haze Haze  
Wind Chill: 37°   Ceiling: 1400
Heat Index: 43°   Visibility: 4mi
Dew Point: 41°   Wind: 9mph
Humidity: 93%   Direction: 150°SSE
Pressure: 29.85"   Gusts: NA
Location:  45.03°N, 78.22°W
Report Text: CYQA 231900Z AUTO 15008KT 4SM BR BKN014 OVC027 06/05 A2985 RMK SLP119
Loading
Personal Weather Stations






























Interactive Weather Map New forecast layout! Learn more

10-Day Weather Forecast

Advertisements
Track Severe Weather on mobile